KCEF/CEF METAR and TAF weather

Enter ICAO airport designator
Station Type Date Time Source
KCEF METAR 2021/09/24 04:56 UTC NOAA

KCEF 240456Z AUTO 15009G16KT 10SM BKN018 23/20 A2998 RMK AO2 SLP157 T02290198 402880200


Station Type Date Time Source
KCEF Decoded METAR 2021/09/24 04:56 UTC NOAA

Chicopee Falls / Westover Air Force Base, MA, United States (KCEF) 42-12N 072-32W 75M
Sep 24, 2021 - 12:56 AM EDT / 2021.09.24 0456 UTC
Wind: from the SSE (150 degrees) at 10 MPH (9 KT) gusting to 18 MPH (16 KT):0
Visibility: 10 mile(s):0
Sky conditions: mostly cloudy
Temperature: 73.2 F (22.9 C)
Dew Point: 67.6 F (19.8 C)
Relative Humidity: 82%
Pressure (altimeter): 29.98 in. Hg (1015 hPa)
ob: KCEF 240456Z AUTO 15009G16KT 10SM BKN018 23/20 A2998 RMK AO2 SLP157 T02290198 402880200
cycle: 5

Station Type Date Time Source
KCEF TAF 2021/09/24 02:06 UTC NOAA

TAF TAF KCEF 240200Z 2402/2508 15010G15KT 9999 BKN015 BKN060 510154 QNH2995INS
TEMPO 2402/2405 9000 -SHRA SCT009 BKN015
BECMG 2405/2406 15012KT 9999 -SHRA SCT009 BKN015 510154 QNH2992INS
TEMPO 2408/2413 17012G22KT 3200 TSRA BR BKN009 OVC015CB
BECMG 2413/2414 31009KT 6000 -RA BR FEW009 OVC015 510153 QNH2996INS
BECMG 2415/2416 22007KT 9999 NSW FEW010 BKN035 510353 QNH2999INS
BECMG 2502/2503 VRB06KT 4800 BR SCT010 SCT035 QNH3001INS TX23/2402Z TN09/2502Z LAST NO
AMDS AFT 2403 NEXT 2411

Example: see airport list